Time;durP1;ratioP1;P1;durP2;ratioP2;P2;SDS_P1;SDS_P2;PMS_P1;PMS_P2;Temp;Humidity;BMP_temperature;BMP_pressure;BME280_temperature;BME280_humidity;BME280_pressure;Samples;Min_cycle;Max_cycle;Signal;HPM_P1;HPM_P2
2023/01/10 00:01:10;;;;;;;1.83;1.60;;;10.90;43.60;;;;;;5033159;28;20193;-53
2023/01/10 00:03:36;;;;;;;3.87;2.73;;;10.80;43.20;;;;;;5032986;28;20243;-53
2023/01/10 00:06:01;;;;;;;2.03;1.30;;;10.90;43.30;;;;;;5032970;28;20217;-53
2023/01/10 00:08:27;;;;;;;2.70;1.87;;;10.90;43.40;;;;;;5033265;28;20196;-53
2023/01/10 00:10:53;;;;;;;3.57;2.33;;;10.90;43.50;;;;;;5032939;28;20212;-53
2023/01/10 00:13:24;;;;;;;5.17;2.63;;;10.90;43.40;;;;;;5033000;28;20239;-53
2023/01/10 00:15:54;;;;;;;3.17;1.65;;;10.90;44.00;;;;;;5032606;28;20281;-53
2023/01/10 00:18:21;;;;;;;2.70;1.80;;;10.90;43.10;;;;;;5033027;28;20196;-53
2023/01/10 00:20:48;;;;;;;2.47;1.70;;;10.90;43.20;;;;;;5032622;28;20695;-53
2023/01/10 00:23:14;;;;;;;2.95;2.13;;;11.00;43.30;;;;;;5032827;28;20554;-53
2023/01/10 00:25:41;;;;;;;3.65;1.75;;;11.00;43.20;;;;;;5032306;28;20193;-53
2023/01/10 00:28:18;;;;;;;2.38;1.67;;;11.00;43.20;;;;;;5032748;28;20186;-53
2023/01/10 00:30:48;;;;;;;2.70;1.73;;;11.00;43.20;;;;;;5032514;28;20170;-53
2023/01/10 00:33:19;;;;;;;2.63;2.15;;;11.00;43.10;;;;;;5032699;28;20173;-53
2023/01/10 00:35:46;;;;;;;4.57;2.22;;;11.00;43.10;;;;;;5031329;28;20196;-53
2023/01/10 00:38:13;;;;;;;2.95;2.45;;;11.10;43.10;;;;;;5032712;28;20189;-53
2023/01/10 00:40:39;;;;;;;2.20;1.65;;;11.00;43.00;;;;;;5032407;28;20224;-53
2023/01/10 00:45:49;;;;;;;4.75;2.42;;;11.00;42.90;;;;;;5032374;28;20200;-53
2023/01/10 00:48:19;;;;;;;4.30;1.67;;;11.00;42.90;;;;;;5032504;28;20268;-53
2023/01/10 00:50:45;;;;;;;3.13;2.83;;;10.90;42.90;;;;;;5032404;28;20205;-53
2023/01/10 00:53:10;;;;;;;2.30;1.73;;;10.90;43.30;;;;;;5032288;28;20176;-53
2023/01/10 00:55:36;;;;;;;2.53;1.97;;;10.90;43.20;;;;;;5031910;28;20193;-53
2023/01/10 00:58:02;;;;;;;9.00;3.60;;;10.90;43.20;;;;;;5032178;28;20170;-53
2023/01/10 01:00:28;;;;;;;4.20;2.33;;;10.80;43.40;;;;;;5032460;28;20182;-53
2023/01/10 01:02:54;;;;;;;3.70;2.73;;;10.90;43.30;;;;;;5032345;28;20561;-53
2023/01/10 01:05:20;;;;;;;4.40;2.50;;;10.80;43.20;;;;;;5031945;28;20429;-53
2023/01/10 01:07:50;;;;;;;6.35;2.10;;;10.80;43.40;;;;;;5032133;28;20195;-53
2023/01/10 01:10:26;;;;;;;3.17;2.15;;;10.80;43.40;;;;;;5031988;28;20522;-53
2023/01/10 01:13:20;;;;;;;2.95;1.85;;;10.80;43.10;;;;;;5032298;28;20158;-53
2023/01/10 01:15:46;;;;;;;4.93;2.00;;;10.90;43.40;;;;;;5031786;28;20201;-53
2023/01/10 01:18:18;;;;;;;3.35;2.47;;;10.90;43.40;;;;;;5032262;28;20174;-53
2023/01/10 01:20:47;;;;;;;3.95;2.30;;;10.80;43.20;;;;;;5031815;28;20593;-53
2023/01/10 01:23:14;;;;;;;3.05;2.03;;;10.80;43.50;;;;;;5031958;28;20269;-53
2023/01/10 01:25:40;;;;;;;4.97;2.80;;;10.90;43.30;;;;;;5031581;28;20574;-53
2023/01/10 01:28:06;;;;;;;2.80;2.10;;;11.00;43.30;;;;;;5045331;23;20695;-52
2023/01/10 01:30:32;;;;;;;4.63;2.20;;;10.90;43.20;;;;;;5031952;28;20178;-53
2023/01/10 01:32:58;;;;;;;3.63;2.00;;;10.90;43.20;;;;;;5032214;28;20197;-52
2023/01/10 01:35:24;;;;;;;4.30;2.63;;;10.90;43.20;;;;;;5031706;28;20411;-55
2023/01/10 01:37:50;;;;;;;3.43;2.57;;;10.90;43.20;;;;;;5031936;28;20196;-54
2023/01/10 01:40:21;;;;;;;2.60;2.20;;;11.00;43.20;;;;;;5031955;28;20760;-54
2023/01/10 01:42:48;;;;;;;5.25;2.47;;;11.00;43.00;;;;;;5031969;28;20301;-51
2023/01/10 01:45:14;;;;;;;3.17;2.15;;;11.00;42.90;;;;;;5031508;28;20232;-51
2023/01/10 01:48:14;;;;;;;4.30;3.13;;;11.10;43.00;;;;;;5035381;28;20665;-55
2023/01/10 01:51:04;;;;;;;4.43;3.05;;;11.10;42.90;;;;;;5036249;28;20588;-53
2023/01/10 01:53:53;;;;;;;4.13;2.50;;;11.00;42.90;;;;;;5035462;28;20170;-51
2023/01/10 01:56:43;;;;;;;5.45;2.72;;;11.00;43.00;;;;;;5035256;28;20821;-51
2023/01/10 01:59:21;;;;;;;4.35;1.90;;;11.00;43.00;;;;;;5035520;28;20177;-50
2023/01/10 02:01:51;;;;;;;3.72;1.80;;;11.00;43.10;;;;;;5035288;28;20186;-51
2023/01/10 02:04:27;;;;;;;4.10;2.65;;;10.90;43.10;;;;;;5035236;28;20826;-54
2023/01/10 02:06:54;;;;;;;4.85;2.25;;;10.90;43.00;;;;;;5035511;28;20414;-51
2023/01/10 02:09:29;;;;;;;4.50;3.05;;;10.80;43.40;;;;;;5035329;28;20174;-51
2023/01/10 02:11:55;;;;;;;3.15;2.55;;;10.80;43.40;;;;;;5035217;28;20216;-51
2023/01/10 02:14:23;;;;;;;4.25;2.20;;;10.80;43.50;;;;;;5034993;28;20170;-51
2023/01/10 02:16:49;;;;;;;4.35;2.70;;;10.90;43.40;;;;;;5035090;28;20201;-51
2023/01/10 02:19:26;;;;;;;3.40;2.63;;;10.90;43.40;;;;;;5035163;28;20253;-51
2023/01/10 02:22:27;;;;;;;5.80;2.65;;;10.90;43.50;;;;;;5035004;28;20561;-50
2023/01/10 02:24:56;;;;;;;3.10;2.40;;;10.90;43.50;;;;;;5044015;28;20650;-51
2023/01/10 02:27:36;;;;;;;10.90;3.00;;;10.90;43.60;;;;;;5035026;28;20217;-51
2023/01/10 02:30:23;;;;;;;3.75;3.15;;;10.90;43.60;;;;;;5034945;28;20668;-51
2023/01/10 02:33:24;;;;;;;3.60;2.95;;;10.90;43.50;;;;;;5034864;28;20174;-53
2023/01/10 02:36:15;;;;;;;6.25;3.00;;;10.90;44.20;;;;;;5040192;28;20760;-51
2023/01/10 02:38:55;;;;;;;3.50;3.05;;;10.90;43.40;;;;;;5042730;28;20186;-51
2023/01/10 02:41:41;;;;;;;4.50;3.05;;;10.80;43.50;;;;;;5034538;28;20277;-51
2023/01/10 02:44:15;;;;;;;3.97;2.60;;;10.70;43.60;;;;;;5034651;28;20155;-53
2023/01/10 02:46:45;;;;;;;3.70;2.67;;;10.60;43.80;;;;;;5034446;28;20553;-53
2023/01/10 02:49:10;;;;;;;4.53;3.08;;;10.60;44.00;;;;;;5034508;28;20171;-51
2023/01/10 02:51:36;;;;;;;3.70;2.70;;;10.60;44.30;;;;;;5034408;28;20223;-51
2023/01/10 02:54:07;;;;;;;5.47;3.57;;;10.70;44.30;;;;;;5034437;28;20541;-51
2023/01/10 02:56:46;;;;;;;3.92;2.88;;;10.70;44.40;;;;;;5034368;28;20197;-51
2023/01/10 03:00:05;;;;;;;5.20;3.17;;;10.70;44.40;;;;;;5033628;28;20532;-51
2023/01/10 03:02:42;;;;;;;3.05;2.47;;;10.70;44.40;;;;;;5051739;28;20712;-53
2023/01/10 03:05:31;;;;;;;5.13;3.10;;;10.70;44.60;;;;;;5051568;28;20211;-51
2023/01/10 03:08:08;;;;;;;4.90;3.35;;;10.70;44.60;;;;;;5051738;28;20193;-51
2023/01/10 03:10:49;;;;;;;3.38;2.65;;;10.70;45.30;;;;;;5051555;28;20184;-51
2023/01/10 03:13:21;;;;;;;4.40;2.30;;;10.60;44.70;;;;;;5051710;28;20204;-51
2023/01/10 03:15:49;;;;;;;4.68;2.70;;;10.60;44.80;;;;;;5051443;28;20193;-51
2023/01/10 03:18:19;;;;;;;6.05;3.22;;;10.60;44.80;;;;;;5051513;28;20294;-51
2023/01/10 03:20:46;;;;;;;5.35;3.58;;;10.70;45.00;;;;;;5051510;28;20655;-51
2023/01/10 03:23:15;;;;;;;4.45;3.75;;;10.70;45.10;;;;;;5051546;28;20580;-51
2023/01/10 03:25:43;;;;;;;5.50;3.33;;;10.80;44.90;;;;;;5051389;28;20174;-51
2023/01/10 03:28:16;;;;;;;10.05;3.38;;;10.80;44.80;;;;;;5051296;28;20204;-51
2023/01/10 03:30:55;;;;;;;5.53;3.60;;;10.90;44.80;;;;;;5051364;28;20195;-51
2023/01/10 03:33:25;;;;;;;9.48;3.67;;;10.90;44.70;;;;;;5051308;28;20168;-50
2023/01/10 03:36:00;;;;;;;4.00;3.30;;;10.80;44.50;;;;;;5046893;28;20676;-51
2023/01/10 03:38:33;;;;;;;5.90;4.10;;;10.80;44.60;;;;;;5033504;28;20189;-51
2023/01/10 03:41:02;;;;;;;5.10;3.33;;;10.80;44.70;;;;;;5033480;28;20166;-51
2023/01/10 03:46:32;;;;;;;5.20;3.50;;;10.80;44.80;;;;;;5033270;28;20209;-51
2023/01/10 03:48:59;;;;;;;5.93;3.78;;;10.70;45.00;;;;;;5033444;28;20158;-51
2023/01/10 03:51:26;;;;;;;3.80;3.30;;;10.60;45.00;;;;;;5033368;28;20641;-51
2023/01/10 03:53:52;;;;;;;6.78;4.35;;;10.70;45.20;;;;;;5033238;28;20665;-50
2023/01/10 03:56:18;;;;;;;5.37;3.10;;;10.70;45.20;;;;;;5033000;28;20177;-53
2023/01/10 03:58:43;;;;;;;5.37;3.50;;;10.60;45.10;;;;;;5033206;28;20408;-53
2023/01/10 04:01:09;;;;;;;5.67;3.90;;;10.60;45.20;;;;;;5033152;28;20276;-52
2023/01/10 04:03:35;;;;;;;9.80;4.20;;;10.60;45.20;;;;;;5033080;28;20300;-53
2023/01/10 04:06:02;;;;;;;5.83;4.27;;;10.70;45.40;;;;;;5032999;28;20177;-53
2023/01/10 04:08:27;;;;;;;8.65;4.00;;;10.70;45.20;;;;;;5032756;28;20193;-53
2023/01/10 04:10:53;;;;;;;4.37;3.43;;;10.70;45.00;;;;;;5032897;28;20169;-50
2023/01/10 04:13:19;;;;;;;5.00;3.63;;;10.70;45.10;;;;;;5033012;28;20169;-53
2023/01/10 04:15:44;;;;;;;6.50;3.90;;;10.80;45.00;;;;;;5032664;28;20186;-53
2023/01/10 04:18:11;;;;;;;5.33;3.50;;;10.80;45.00;;;;;;5032778;28;20197;-52
2023/01/10 04:20:37;;;;;;;5.25;3.75;;;10.70;45.00;;;;;;5032819;28;20170;-53
2023/01/10 04:23:03;;;;;;;5.63;3.70;;;10.70;45.00;;;;;;5032702;28;20279;-53
2023/01/10 04:25:28;;;;;;;9.33;3.73;;;10.80;44.90;;;;;;5032445;28;20557;-51
2023/01/10 04:27:54;;;;;;;7.30;4.20;;;10.80;44.90;;;;;;5032522;28;20231;-53
2023/01/10 04:30:20;;;;;;;5.77;3.40;;;10.80;44.80;;;;;;5032649;28;20257;-53
2023/01/10 04:32:46;;;;;;;8.00;4.50;;;10.80;44.80;;;;;;5032598;28;20176;-53
2023/01/10 04:35:12;;;;;;;9.02;4.72;;;10.80;44.60;;;;;;5032403;28;20202;-53
2023/01/10 04:37:38;;;;;;;5.63;3.70;;;10.70;44.90;;;;;;5032376;28;20236;-53
2023/01/10 04:40:04;;;;;;;6.97;4.53;;;10.70;44.90;;;;;;5032352;28;20433;-53
2023/01/10 04:42:30;;;;;;;7.75;3.58;;;10.80;44.70;;;;;;5032355;28;20238;-53
2023/01/10 04:44:56;;;;;;;6.70;3.40;;;10.70;44.80;;;;;;5032461;28;20518;-53
2023/01/10 04:47:21;;;;;;;5.60;4.53;;;10.70;44.60;;;;;;5032365;28;20185;-53
2023/01/10 04:49:47;;;;;;;13.43;4.60;;;10.70;45.00;;;;;;5032324;28;20231;-53
2023/01/10 04:52:13;;;;;;;5.73;3.83;;;10.70;45.00;;;;;;5032350;28;20170;-53
2023/01/10 04:54:39;;;;;;;6.97;4.17;;;10.70;45.10;;;;;;5031905;28;20170;-53
2023/01/10 04:57:05;;;;;;;5.17;3.73;;;10.70;45.00;;;;;;5032182;28;20190;-53
2023/01/10 04:59:31;;;;;;;10.57;4.65;;;10.60;45.20;;;;;;5032303;28;20182;-53
2023/01/10 05:01:57;;;;;;;5.70;4.53;;;10.60;45.10;;;;;;5032067;28;20665;-53
2023/01/10 05:04:23;;;;;;;6.68;4.72;;;10.60;45.00;;;;;;5031933;28;20170;-53
2023/01/10 05:06:49;;;;;;;8.23;5.25;;;10.70;45.00;;;;;;5032301;28;20203;-53
2023/01/10 05:09:15;;;;;;;5.07;4.57;;;10.70;45.00;;;;;;5032007;28;20248;-53
2023/01/10 05:11:41;;;;;;;9.60;4.90;;;10.70;44.80;;;;;;5032128;28;20660;-51
2023/01/10 05:14:06;;;;;;;7.43;4.70;;;10.70;44.80;;;;;;5032016;28;20405;-51
2023/01/10 05:16:32;;;;;;;8.07;4.60;;;10.80;44.80;;;;;;5031762;28;20236;-51
2023/01/10 05:18:58;;;;;;;10.70;5.60;;;10.80;44.60;;;;;;5032096;28;20254;-50
2023/01/10 05:21:24;;;;;;;8.43;4.50;;;10.80;44.60;;;;;;5033942;28;20592;-50
2023/01/10 05:23:49;;;;;;;4.90;4.00;;;10.80;44.60;;;;;;5036015;28;20174;-53
2023/01/10 05:26:20;;;;;;;7.30;4.53;;;10.80;44.50;;;;;;5035938;28;20941;-54
2023/01/10 05:28:46;;;;;;;10.50;5.22;;;10.80;44.50;;;;;;5036162;28;20177;-53
2023/01/10 05:31:16;;;;;;;9.40;4.93;;;10.70;44.70;;;;;;5036137;28;20184;-51
2023/01/10 05:33:46;;;;;;;8.05;4.57;;;10.80;44.70;;;;;;5035896;28;20903;-51
2023/01/10 05:36:13;;;;;;;5.03;4.47;;;10.70;44.70;;;;;;5035714;28;20214;-53
2023/01/10 05:38:39;;;;;;;6.30;4.10;;;10.80;44.70;;;;;;5035750;28;20692;-51
2023/01/10 05:41:05;;;;;;;7.85;5.30;;;10.80;44.70;;;;;;5035636;28;20260;-51
2023/01/10 05:43:31;;;;;;;6.78;4.93;;;10.70;44.60;;;;;;5035649;28;20177;-51
2023/01/10 05:45:56;;;;;;;10.43;4.43;;;10.80;44.60;;;;;;5035508;28;20178;-52
2023/01/10 05:48:22;;;;;;;6.70;4.40;;;10.80;44.70;;;;;;5035556;28;20268;-52
2023/01/10 05:50:49;;;;;;;4.83;3.43;;;10.80;44.60;;;;;;5035782;28;20174;-52
2023/01/10 05:53:15;;;;;;;8.82;4.22;;;10.80;44.70;;;;;;5034237;28;20448;-52
2023/01/10 05:55:41;;;;;;;7.32;4.38;;;10.70;45.00;;;;;;5035575;28;20182;-52
2023/01/10 05:58:09;;;;;;;11.47;5.27;;;10.70;45.00;;;;;;5035359;28;20213;-52
2023/01/10 06:00:36;;;;;;;12.77;5.85;;;10.70;44.90;;;;;;5035581;28;20169;-52
2023/01/10 06:03:01;;;;;;;10.35;5.10;;;10.70;44.90;;;;;;5035212;28;20251;-52
2023/01/10 06:05:27;;;;;;;13.17;5.83;;;10.70;44.90;;;;;;5034883;28;20174;-52
2023/01/10 06:07:53;;;;;;;10.90;6.13;;;10.70;44.90;;;;;;5035210;28;20186;-52
2023/01/10 06:10:18;;;;;;;9.13;5.23;;;10.70;44.90;;;;;;5035173;28;20174;-52
2023/01/10 06:12:44;;;;;;;13.37;5.60;;;10.70;44.80;;;;;;5035082;28;20177;-52
2023/01/10 06:15:10;;;;;;;7.20;5.10;;;10.70;44.80;;;;;;5035030;28;20181;-52
2023/01/10 06:17:36;;;;;;;12.87;5.67;;;10.80;44.80;;;;;;5034999;28;20949;-52
2023/01/10 06:20:02;;;;;;;6.93;5.50;;;10.80;44.70;;;;;;5034897;28;20178;-52
2023/01/10 06:22:27;;;;;;;7.00;4.57;;;10.80;44.70;;;;;;5034929;28;20276;-52
2023/01/10 06:24:54;;;;;;;5.80;4.40;;;10.80;44.70;;;;;;5034865;28;20409;-52
2023/01/10 06:27:20;;;;;;;8.57;6.20;;;10.80;44.50;;;;;;5034861;28;20244;-52
2023/01/10 06:29:46;;;;;;;6.22;4.55;;;10.80;44.60;;;;;;5034844;28;20653;-52
2023/01/10 06:32:12;;;;;;;9.67;5.27;;;10.80;44.70;;;;;;5034784;28;20252;-52
2023/01/10 06:34:38;;;;;;;11.60;5.67;;;10.80;44.70;;;;;;5034418;28;20424;-52
2023/01/10 06:37:03;;;;;;;6.60;5.30;;;10.70;44.80;;;;;;5034851;28;20194;-52
2023/01/10 06:39:29;;;;;;;8.57;5.10;;;10.70;44.90;;;;;;5034657;28;20174;-52
2023/01/10 06:41:55;;;;;;;10.40;6.20;;;10.80;44.80;;;;;;5034577;28;20600;-52
2023/01/10 06:44:20;;;;;;;9.40;5.47;;;10.70;45.00;;;;;;5034567;28;20184;-52
2023/01/10 06:46:46;;;;;;;9.70;4.77;;;10.60;45.00;;;;;;5034448;28;20231;-52
2023/01/10 06:49:12;;;;;;;9.33;4.33;;;10.60;45.20;;;;;;5034659;28;20178;-52
2023/01/10 06:51:38;;;;;;;10.43;5.63;;;10.60;45.00;;;;;;5034396;28;20228;-52
2023/01/10 06:54:03;;;;;;;5.97;4.33;;;10.60;44.90;;;;;;5034408;28;20227;-52
2023/01/10 06:56:29;;;;;;;9.70;5.40;;;10.60;44.80;;;;;;5034386;28;20577;-52
2023/01/10 06:58:55;;;;;;;10.30;5.30;;;10.60;44.70;;;;;;5034614;28;20177;-52
2023/01/10 07:01:21;;;;;;;11.97;5.27;;;10.60;44.70;;;;;;5034547;28;20202;-52
2023/01/10 07:03:47;;;;;;;7.30;5.30;;;10.60;44.70;;;;;;5034244;28;20181;-52
2023/01/10 07:06:13;;;;;;;7.70;5.85;;;10.60;44.70;;;;;;5033793;28;20260;-51
2023/01/10 07:08:42;;;;;;;6.18;3.80;;;10.60;44.70;;;;;;5034260;28;20173;-52
2023/01/10 07:11:09;;;;;;;6.60;4.80;;;10.70;44.80;;;;;;5034286;28;20243;-52
2023/01/10 07:13:35;;;;;;;8.82;4.22;;;10.70;44.80;;;;;;5034310;28;20173;-52
2023/01/10 07:16:06;;;;;;;10.10;4.80;;;10.70;44.80;;;;;;5033843;28;20534;-51
2023/01/10 07:18:34;;;;;;;6.07;4.38;;;10.70;45.00;;;;;;5033856;28;20780;-52
2023/01/10 07:20:59;;;;;;;8.88;5.10;;;10.60;45.00;;;;;;5033853;28;20228;-52
2023/01/10 07:23:25;;;;;;;6.47;5.07;;;10.70;45.20;;;;;;5033826;28;20177;-52
2023/01/10 07:25:51;;;;;;;11.13;5.33;;;10.70;45.30;;;;;;5034004;28;20178;-52
2023/01/10 07:28:17;;;;;;;9.57;4.97;;;10.70;45.30;;;;;;5033516;28;20636;-51
2023/01/10 07:30:43;;;;;;;9.17;5.33;;;10.70;45.30;;;;;;5033667;28;20412;-52
2023/01/10 07:33:08;;;;;;;6.83;5.07;;;10.70;45.40;;;;;;5033902;28;20205;-52
2023/01/10 07:35:34;;;;;;;8.07;5.77;;;10.60;45.40;;;;;;5033497;28;20454;-52
2023/01/10 07:38:02;;;;;;;8.30;5.63;;;10.70;45.50;;;;;;5033563;28;20194;-53
2023/01/10 07:40:28;;;;;;;10.48;5.50;;;10.70;45.60;;;;;;5033850;28;20186;-53
2023/01/10 07:42:58;;;;;;;10.90;5.28;;;10.70;45.70;;;;;;5033499;28;20673;-53
2023/01/10 07:45:25;;;;;;;6.28;5.25;;;10.70;45.80;;;;;;5032769;28;20166;-52
2023/01/10 07:47:56;;;;;;;8.30;5.95;;;10.70;45.70;;;;;;5033233;28;20204;-52
2023/01/10 07:50:21;;;;;;;8.38;5.07;;;10.70;45.90;;;;;;5033310;28;20159;-52
2023/01/10 07:52:47;;;;;;;8.87;5.10;;;10.60;45.80;;;;;;5033625;28;20185;-52
2023/01/10 07:55:13;;;;;;;6.23;5.50;;;10.60;45.80;;;;;;5033050;28;20260;-52
2023/01/10 07:57:38;;;;;;;8.47;4.80;;;10.70;45.90;;;;;;5033115;28;20193;-52
2023/01/10 08:00:05;;;;;;;8.43;5.13;;;10.70;45.90;;;;;;5033101;28;20166;-52
2023/01/10 08:02:30;;;;;;;6.95;5.68;;;10.70;45.90;;;;;;5032994;28;20197;-52
2023/01/10 08:04:56;;;;;;;6.50;4.27;;;10.70;46.00;;;;;;5033007;28;20587;-52
2023/01/10 08:07:22;;;;;;;8.20;5.10;;;10.70;45.90;;;;;;5032938;28;20211;-52
2023/01/10 08:09:47;;;;;;;7.17;4.73;;;10.70;46.30;;;;;;5033012;28;20696;-52
2023/01/10 08:12:13;;;;;;;5.70;4.80;;;10.60;46.50;;;;;;5032899;28;20228;-52
2023/01/10 08:14:39;;;;;;;9.40;4.83;;;10.60;46.60;;;;;;5032635;28;20251;-52
2023/01/10 08:17:04;;;;;;;7.67;5.03;;;10.60;46.50;;;;;;5033062;28;20225;-52
2023/01/10 08:19:30;;;;;;;7.57;4.90;;;10.60;46.40;;;;;;5033062;28;20650;-52
2023/01/10 08:21:56;;;;;;;6.10;4.17;;;10.70;46.40;;;;;;5032842;28;20185;-52
2023/01/10 08:24:22;;;;;;;6.00;4.43;;;10.70;46.30;;;;;;5032573;28;20170;-52
2023/01/10 08:26:47;;;;;;;7.97;5.07;;;10.70;46.10;;;;;;5032509;28;20436;-52
2023/01/10 08:29:14;;;;;;;7.23;5.53;;;10.70;46.20;;;;;;5032486;28;20192;-52
2023/01/10 08:31:40;;;;;;;7.88;5.43;;;10.70;46.30;;;;;;5032588;28;20184;-52
2023/01/10 08:34:06;;;;;;;7.23;5.50;;;10.70;46.20;;;;;;5032587;28;20170;-52
2023/01/10 08:36:32;;;;;;;8.63;4.40;;;10.80;46.00;;;;;;5032267;28;20425;-52
2023/01/10 08:38:57;;;;;;;9.30;5.03;;;10.70;46.20;;;;;;5032557;28;20170;-52
2023/01/10 08:41:23;;;;;;;7.90;5.63;;;10.80;46.00;;;;;;5032693;28;20193;-52
2023/01/10 08:43:49;;;;;;;9.77;5.00;;;10.70;46.20;;;;;;5032581;28;20166;-52
2023/01/10 08:46:16;;;;;;;6.45;4.03;;;10.70;46.20;;;;;;5032062;28;20630;-52
2023/01/10 08:48:42;;;;;;;6.32;4.93;;;10.70;46.30;;;;;;5032354;28;20192;-52
2023/01/10 08:51:08;;;;;;;6.03;4.53;;;10.90;46.20;;;;;;5032351;28;20170;-52
2023/01/10 08:53:35;;;;;;;6.95;4.57;;;10.90;45.80;;;;;;5032291;28;20480;-52
2023/01/10 08:56:01;;;;;;;6.55;4.72;;;10.90;45.70;;;;;;5031233;28;20248;-52
2023/01/10 08:58:27;;;;;;;7.68;5.85;;;10.90;45.60;;;;;;5032143;28;20186;-51
2023/01/10 09:00:52;;;;;;;6.90;4.80;;;11.00;45.50;;;;;;5032462;28;20257;-52
2023/01/10 09:03:18;;;;;;;6.73;4.00;;;10.90;45.40;;;;;;5031973;28;20288;-52
2023/01/10 09:05:44;;;;;;;6.40;4.70;;;10.90;45.40;;;;;;5032085;28;20177;-52
2023/01/10 09:08:10;;;;;;;5.20;3.67;;;10.90;45.40;;;;;;5032356;28;20281;-52
2023/01/10 09:10:35;;;;;;;6.30;3.50;;;11.20;45.70;;;;;;5032082;28;20407;-52
2023/01/10 09:13:03;;;;;;;5.70;3.63;;;11.60;44.50;;;;;;5032029;28;20963;-52
2023/01/10 09:15:30;;;;;;;7.38;4.30;;;11.80;44.40;;;;;;5032071;28;20186;-52
2023/01/10 09:17:58;;;;;;;5.60;3.60;;;11.80;43.90;;;;;;5031994;28;20288;-52
2023/01/10 09:20:26;;;;;;;6.20;3.17;;;11.80;44.20;;;;;;5032103;28;20231;-52
2023/01/10 09:22:52;;;;;;;4.90;2.83;;;11.60;43.70;;;;;;5031934;28;20198;-52
2023/01/10 09:25:18;;;;;;;10.80;3.28;;;11.50;44.30;;;;;;5031933;28;20220;-52
2023/01/10 09:27:44;;;;;;;2.78;1.98;;;11.50;44.60;;;;;;5031727;28;20270;-52
2023/01/10 09:30:11;;;;;;;5.03;3.50;;;11.50;44.90;;;;;;5031964;28;20165;-52
2023/01/10 09:32:36;;;;;;;3.90;1.92;;;11.50;44.60;;;;;;5031758;28;20223;-52
2023/01/10 09:35:03;;;;;;;2.80;1.77;;;11.50;44.60;;;;;;5031663;28;20174;-52
2023/01/10 09:37:29;;;;;;;2.88;2.20;;;11.50;45.30;;;;;;5032119;28;20194;-52
2023/01/10 09:39:54;;;;;;;5.00;2.28;;;11.20;45.80;;;;;;5032036;28;20209;-52
2023/01/10 09:42:42;;;;;;;3.03;2.20;;;11.10;46.20;;;;;;5032005;28;20649;-52
2023/01/10 09:45:45;;;;;;;4.60;2.63;;;11.10;46.70;;;;;;5031546;28;20174;-52
2023/01/10 09:48:27;;;;;;;6.22;3.67;;;11.10;46.70;;;;;;5031705;28;20264;-52
2023/01/10 09:51:23;;;;;;;6.18;3.05;;;11.10;46.80;;;;;;5031730;28;20166;-52
2023/01/10 09:53:53;;;;;;;3.28;2.25;;;11.10;47.00;;;;;;5031740;28;20220;-52
2023/01/10 09:56:19;;;;;;;7.55;3.88;;;11.20;47.20;;;;;;5031432;28;20178;-52
2023/01/10 09:58:46;;;;;;;7.15;2.50;;;11.10;47.10;;;;;;5031527;28;20701;-52
2023/01/10 10:01:17;;;;;;;5.70;3.13;;;11.10;47.10;;;;;;5031562;28;20176;-52
2023/01/10 10:04:00;;;;;;;4.80;3.05;;;11.20;47.50;;;;;;5031928;28;20612;-52
2023/01/10 10:06:26;;;;;;;7.63;2.83;;;11.20;47.40;;;;;;5031694;28;20168;-51
2023/01/10 10:08:52;;;;;;;6.83;2.90;;;11.20;47.50;;;;;;5035224;28;20170;-52
2023/01/10 10:11:24;;;;;;;8.27;2.90;;;11.20;47.60;;;;;;5035086;28;20208;-52
2023/01/10 10:14:17;;;;;;;4.30;3.05;;;11.30;47.60;;;;;;5035073;28;20292;-51
2023/01/10 10:17:11;;;;;;;6.80;3.90;;;10.20;47.30;;;;;;5034991;28;20189;-52
2023/01/10 10:19:58;;;;;;;4.15;3.55;;;11.30;48.10;;;;;;5035024;28;20253;-52
2023/01/10 10:22:48;;;;;;;5.28;3.28;;;11.30;48.10;;;;;;5035292;28;20209;-52
2023/01/10 10:25:39;;;;;;;9.13;3.72;;;11.30;48.10;;;;;;5034771;28;20521;-52
2023/01/10 10:28:41;;;;;;;5.55;3.63;;;11.30;48.00;;;;;;5034687;28;20628;-52
2023/01/10 10:31:31;;;;;;;8.20;3.80;;;11.40;48.00;;;;;;5034950;28;20235;-52
2023/01/10 10:34:16;;;;;;;5.57;3.75;;;11.30;48.00;;;;;;5035081;28;20528;-52
2023/01/10 10:37:01;;;;;;;4.63;3.42;;;11.40;48.00;;;;;;5034613;28;20189;-51
2023/01/10 10:39:48;;;;;;;6.60;4.20;;;11.40;48.00;;;;;;5034766;28;20154;-52
2023/01/10 10:42:17;;;;;;;2.90;2.47;;;11.40;48.90;;;;;;5034680;28;20210;-52
2023/01/10 10:44:49;;;;;;;6.03;2.70;;;11.40;48.00;;;;;;5034576;28;20185;-51
2023/01/10 10:47:18;;;;;;;9.65;2.88;;;11.40;48.10;;;;;;5034797;28;20193;-52
2023/01/10 10:49:46;;;;;;;5.10;2.63;;;11.40;47.70;;;;;;5034756;28;20567;-52
2023/01/10 10:52:24;;;;;;;3.45;2.00;;;11.40;47.60;;;;;;5034502;28;20170;-52
2023/01/10 10:54:51;;;;;;;5.93;2.47;;;11.50;46.90;;;;;;5034222;28;20178;-52
2023/01/10 10:57:18;;;;;;;2.97;2.42;;;11.40;46.90;;;;;;5034334;28;20581;-52
2023/01/10 10:59:47;;;;;;;6.38;2.28;;;11.50;47.10;;;;;;5034358;28;20175;-52
2023/01/10 11:02:21;;;;;;;5.82;2.55;;;11.50;46.30;;;;;;5034396;28;20289;-51
2023/01/10 11:04:49;;;;;;;4.25;2.42;;;11.60;46.20;;;;;;5034365;28;20176;-52
2023/01/10 11:07:17;;;;;;;3.78;2.60;;;11.40;46.40;;;;;;5034147;28;20700;-52
2023/01/10 11:09:51;;;;;;;4.50;2.30;;;11.50;46.80;;;;;;5034109;28;20209;-52
2023/01/10 11:12:19;;;;;;;3.40;1.80;;;11.50;46.30;;;;;;5034163;28;20190;-51
2023/01/10 11:14:50;;;;;;;6.45;3.13;;;11.60;46.30;;;;;;5033961;28;20181;-52
2023/01/10 11:17:25;;;;;;;3.05;2.38;;;11.60;46.30;;;;;;5033986;28;20189;-51
2023/01/10 11:20:01;;;;;;;6.10;3.35;;;11.70;46.30;;;;;;5032990;28;20518;-52
2023/01/10 11:22:39;;;;;;;5.70;2.60;;;11.80;45.80;;;;;;5034146;28;20284;-52
2023/01/10 11:25:14;;;;;;;6.68;2.97;;;11.70;45.60;;;;;;5033841;28;20188;-52
2023/01/10 11:27:55;;;;;;;5.30;3.03;;;11.70;45.20;;;;;;5033848;28;20286;-51
2023/01/10 11:30:30;;;;;;;3.95;2.95;;;11.70;45.30;;;;;;5033767;28;20280;-51
2023/01/10 11:33:03;;;;;;;3.60;2.65;;;11.70;45.50;;;;;;5033944;28;20173;-52
2023/01/10 11:35:34;;;;;;;5.50;2.80;;;11.80;45.10;;;;;;5033782;28;20228;-52
2023/01/10 11:38:06;;;;;;;3.88;2.90;;;11.70;44.70;;;;;;5033857;28;20693;-52
2023/01/10 11:40:35;;;;;;;8.38;4.07;;;11.70;45.00;;;;;;5033704;28;20261;-51
2023/01/10 11:43:23;;;;;;;5.97;2.90;;;11.80;44.90;;;;;;5033645;28;20566;-52
2023/01/10 11:46:24;;;;;;;6.15;3.47;;;11.90;44.90;;;;;;5033379;28;20190;-52
2023/01/10 11:49:05;;;;;;;6.07;3.20;;;11.90;44.70;;;;;;5036861;28;20181;-51
2023/01/10 11:51:37;;;;;;;3.90;2.95;;;11.90;44.40;;;;;;5033672;28;20174;-51
2023/01/10 11:54:12;;;;;;;11.23;3.85;;;12.10;45.00;;;;;;5033399;28;20672;-51
2023/01/10 11:56:40;;;;;;;5.60;2.90;;;12.20;44.30;;;;;;5033134;28;20276;-51
2023/01/10 11:59:15;;;;;;;11.80;5.50;;;12.30;44.10;;;;;;5033482;28;20173;-51
2023/01/10 12:02:03;;;;;;;9.95;3.97;;;12.30;43.80;;;;;;5033012;28;20209;-51
2023/01/10 12:04:33;;;;;;;10.95;3.88;;;12.40;43.60;;;;;;5032897;28;20170;-51
2023/01/10 12:07:03;;;;;;;9.45;3.90;;;12.40;43.30;;;;;;5033096;28;20197;-52
2023/01/10 12:09:43;;;;;;;4.15;3.05;;;12.50;43.40;;;;;;5032980;28;20170;-51
2023/01/10 12:12:17;;;;;;;7.35;2.63;;;12.60;43.20;;;;;;5033139;28;20177;-52
2023/01/10 12:14:43;;;;;;;6.85;2.97;;;12.50;42.30;;;;;;5032900;28;20174;-52
2023/01/10 12:17:26;;;;;;;4.78;3.05;;;12.50;42.50;;;;;;5032804;28;20602;-51
2023/01/10 12:19:55;;;;;;;8.18;2.78;;;12.50;42.90;;;;;;5033236;28;20166;-51
2023/01/10 12:22:27;;;;;;;9.60;3.63;;;12.50;41.20;;;;;;5032719;28;20190;-51
2023/01/10 12:24:54;;;;;;;10.57;2.80;;;12.60;42.40;;;;;;5032538;28;20522;-51
2023/01/10 12:27:22;;;;;;;9.88;3.22;;;12.60;41.30;;;;;;5032503;28;20237;-51
2023/01/10 12:30:13;;;;;;;6.10;2.33;;;12.50;40.70;;;;;;5032552;28;20162;-51
2023/01/10 12:32:45;;;;;;;3.38;2.47;;;12.50;40.60;;;;;;5032633;28;20185;-51
2023/01/10 12:35:24;;;;;;;8.50;2.50;;;12.50;39.90;;;;;;5032390;28;20197;-52
2023/01/10 12:38:02;;;;;;;4.68;2.47;;;12.50;41.50;;;;;;5032510;28;20193;-51
2023/01/10 12:40:48;;;;;;;4.22;2.40;;;12.70;41.60;;;;;;5032590;28;20177;-52
2023/01/10 12:46:40;;;;;;;7.70;3.38;;;12.70;40.40;;;;;;5032572;28;20160;-52
2023/01/10 12:49:17;;;;;;;8.43;2.55;;;12.60;39.90;;;;;;5032392;28;20166;-52
2023/01/10 12:51:48;;;;;;;8.27;4.07;;;12.50;40.40;;;;;;5032528;28;20584;-52
2023/01/10 12:54:27;;;;;;;4.80;2.42;;;12.50;41.00;;;;;;5032260;28;20231;-52
2023/01/10 12:56:54;;;;;;;5.70;2.65;;;12.60;40.10;;;;;;5032559;28;20550;-52
2023/01/10 12:59:27;;;;;;;3.80;2.00;;;12.60;39.60;;;;;;5032264;28;20186;-52
2023/01/10 13:02:00;;;;;;;6.15;2.85;;;12.50;39.90;;;;;;5032195;28;20223;-52
2023/01/10 13:04:28;;;;;;;7.63;2.55;;;12.50;40.40;;;;;;5031983;28;20242;-52
2023/01/10 13:06:55;;;;;;;9.93;3.03;;;12.50;39.50;;;;;;5032034;28;20186;-52
2023/01/10 13:09:28;;;;;;;7.00;2.83;;;12.40;40.20;;;;;;5032242;28;20177;-52
2023/01/10 13:11:59;;;;;;;6.53;3.75;;;12.50;40.60;;;;;;5032048;28;20308;-52